Time;durP1;ratioP1;P1;durP2;ratioP2;P2;SDS_P1;SDS_P2;PMS_P1;PMS_P2;Temp;Humidity;BMP_temperature;BMP_pressure;BME280_temperature;BME280_humidity;BME280_pressure;Samples;Min_cycle;Max_cycle;Signal;HPM_P1;HPM_P2
2023/07/29 00:02:13;;;;;;;3.90;3.50;;;17.90;99.90;;;;;;4986916;28;20284;-69
2023/07/29 00:04:40;;;;;;;3.97;3.67;;;17.90;99.90;;;;;;4981642;28;20972;-68
2023/07/29 00:07:08;;;;;;;3.67;3.37;;;17.90;99.90;;;;;;4997505;28;20197;-68
2023/07/29 00:09:35;;;;;;;3.90;3.60;;;17.80;99.90;;;;;;4998306;28;20197;-68
2023/07/29 00:12:02;;;;;;;3.53;3.33;;;17.80;99.90;;;;;;4999180;28;20216;-68
2023/07/29 00:14:28;;;;;;;4.50;4.10;;;17.80;99.90;;;;;;4999734;28;20217;-68
2023/07/29 00:16:55;;;;;;;4.77;3.60;;;17.70;99.90;;;;;;4975880;28;20193;-68
2023/07/29 00:19:23;;;;;;;4.23;3.83;;;17.70;99.90;;;;;;4994924;28;20250;-68
2023/07/29 00:21:50;;;;;;;3.73;3.43;;;17.60;99.90;;;;;;4984427;28;20260;-68
2023/07/29 00:24:18;;;;;;;4.17;3.70;;;17.50;99.90;;;;;;5002447;28;20282;-68
2023/07/29 00:26:45;;;;;;;4.20;3.77;;;17.50;99.90;;;;;;4990164;28;20200;-68
2023/07/29 00:29:11;;;;;;;4.20;3.90;;;17.50;99.90;;;;;;4982418;28;20196;-68
2023/07/29 00:31:38;;;;;;;4.20;3.80;;;17.40;99.90;;;;;;4981729;28;22398;-68
2023/07/29 00:34:05;;;;;;;4.33;3.50;;;17.40;99.90;;;;;;4993108;28;20228;-68
2023/07/29 00:36:32;;;;;;;4.50;3.63;;;17.40;99.90;;;;;;4991264;28;20224;-68
2023/07/29 00:38:59;;;;;;;4.27;3.77;;;17.40;99.90;;;;;;5001973;28;20204;-68
2023/07/29 00:41:27;;;;;;;3.77;3.50;;;17.40;99.90;;;;;;4965238;28;20200;-69
2023/07/29 00:43:54;;;;;;;6.33;4.30;;;17.40;99.90;;;;;;4993628;28;20212;-69
2023/07/29 00:46:22;;;;;;;5.20;4.33;;;17.30;99.90;;;;;;4983437;28;20200;-68
2023/07/29 00:48:49;;;;;;;4.00;3.70;;;17.30;99.90;;;;;;4969335;28;20212;-68
2023/07/29 00:51:16;;;;;;;4.70;4.33;;;17.30;99.90;;;;;;4981897;28;20897;-68
2023/07/29 00:53:42;;;;;;;4.40;4.00;;;17.30;99.90;;;;;;4976424;28;20968;-68
2023/07/29 00:56:09;;;;;;;4.67;4.20;;;17.40;99.90;;;;;;4987065;28;20208;-69
2023/07/29 00:58:40;;;;;;;4.93;4.50;;;17.40;99.90;;;;;;4990433;28;20197;-68
2023/07/29 01:01:07;;;;;;;4.73;4.33;;;17.40;99.90;;;;;;4992299;28;20203;-69
2023/07/29 01:03:35;;;;;;;3.97;3.67;;;17.40;99.90;;;;;;4979887;28;20859;-68
2023/07/29 01:06:18;;;;;;;7.20;4.27;;;17.40;99.90;;;;;;4984301;28;20727;-68
2023/07/29 01:08:54;;;;;;;4.03;3.73;;;17.30;99.90;;;;;;4990325;28;20995;-68
2023/07/29 01:11:34;;;;;;;4.70;4.27;;;17.30;99.90;;;;;;5001504;28;20212;-68
2023/07/29 01:14:10;;;;;;;5.43;4.07;;;17.30;99.90;;;;;;4985550;28;20275;-68
2023/07/29 01:16:42;;;;;;;4.47;4.17;;;17.30;99.90;;;;;;4970862;28;20205;-68
2023/07/29 01:19:22;;;;;;;4.77;4.23;;;17.30;99.90;;;;;;4968443;28;20216;-68
2023/07/29 01:21:50;;;;;;;6.03;3.73;;;17.30;99.90;;;;;;4995768;28;20181;-68
2023/07/29 01:24:18;;;;;;;4.50;4.10;;;17.30;99.90;;;;;;4986264;28;20224;-68
2023/07/29 01:26:45;;;;;;;5.80;3.80;;;17.20;99.90;;;;;;4977598;28;20216;-68
2023/07/29 01:29:12;;;;;;;4.87;3.97;;;17.20;99.90;;;;;;4972778;28;20286;-68
2023/07/29 01:31:44;;;;;;;4.17;3.87;;;17.20;99.90;;;;;;4997920;28;20228;-68
2023/07/29 01:34:16;;;;;;;4.00;3.60;;;17.20;99.90;;;;;;4973164;28;20716;-69
2023/07/29 01:36:45;;;;;;;4.00;3.60;;;17.30;99.90;;;;;;4976776;28;20200;-68
2023/07/29 01:39:15;;;;;;;4.60;3.53;;;17.30;99.90;;;;;;4994718;28;20211;-68
2023/07/29 01:41:45;;;;;;;3.97;3.57;;;17.30;99.90;;;;;;4972093;28;20813;-68
2023/07/29 01:44:13;;;;;;;4.07;3.77;;;17.30;99.90;;;;;;4992345;28;20216;-69
2023/07/29 01:46:40;;;;;;;4.20;3.83;;;17.30;99.90;;;;;;4998482;28;20214;-68
2023/07/29 01:49:07;;;;;;;3.70;3.40;;;17.30;99.90;;;;;;4991641;28;20192;-67
2023/07/29 01:51:34;;;;;;;4.33;3.93;;;17.30;99.90;;;;;;4958133;28;20299;-67
2023/07/29 01:54:01;;;;;;;5.07;3.80;;;17.40;99.90;;;;;;4997320;28;20304;-67
2023/07/29 01:56:28;;;;;;;3.80;3.50;;;17.40;99.90;;;;;;4976061;28;20274;-68
2023/07/29 01:58:57;;;;;;;4.80;4.40;;;17.50;99.90;;;;;;4979676;28;20239;-67
2023/07/29 02:01:24;;;;;;;4.50;4.20;;;17.50;99.90;;;;;;4996449;28;20676;-67
2023/07/29 02:03:54;;;;;;;4.80;4.40;;;17.50;99.90;;;;;;4996572;28;20370;-67
2023/07/29 02:06:21;;;;;;;4.50;4.13;;;17.50;99.90;;;;;;4966853;28;20215;-67
2023/07/29 02:08:49;;;;;;;4.67;4.37;;;17.50;99.90;;;;;;4993628;28;20228;-68
2023/07/29 02:11:15;;;;;;;4.87;4.47;;;17.50;99.90;;;;;;4985646;28;20248;-68
2023/07/29 02:13:43;;;;;;;7.00;4.00;;;17.60;99.90;;;;;;4980865;28;20290;-69
2023/07/29 02:16:11;;;;;;;4.67;4.27;;;17.60;99.90;;;;;;4997015;28;20193;-68
2023/07/29 02:18:38;;;;;;;4.67;4.27;;;17.60;99.90;;;;;;4983688;28;20204;-69
2023/07/29 02:21:05;;;;;;;6.67;4.27;;;17.60;99.90;;;;;;4966858;28;20292;-69
2023/07/29 02:23:33;;;;;;;5.93;4.10;;;17.50;99.90;;;;;;4979564;28;20220;-69
2023/07/29 02:25:59;;;;;;;5.77;4.70;;;17.50;99.90;;;;;;5001493;28;20283;-69
2023/07/29 02:28:26;;;;;;;4.87;4.47;;;17.50;99.90;;;;;;4970111;28;20728;-69
2023/07/29 02:31:15;;;;;;;5.97;5.37;;;17.50;99.90;;;;;;4982231;28;20201;-68
2023/07/29 02:33:42;;;;;;;5.77;5.00;;;17.50;99.90;;;;;;4995365;28;20437;-69
2023/07/29 02:36:09;;;;;;;5.63;5.13;;;17.50;99.90;;;;;;4971894;28;20212;-68
2023/07/29 02:38:36;;;;;;;6.47;5.53;;;17.50;99.90;;;;;;4984988;28;20299;-69
2023/07/29 02:41:02;;;;;;;7.23;5.47;;;17.60;99.90;;;;;;4980786;28;20295;-69
2023/07/29 02:43:29;;;;;;;6.33;5.83;;;17.60;99.90;;;;;;4970227;28;20274;-69
2023/07/29 02:45:56;;;;;;;6.13;5.63;;;17.60;99.90;;;;;;4969980;28;20631;-70
2023/07/29 02:48:25;;;;;;;6.23;5.63;;;17.60;99.90;;;;;;4986009;28;20197;-69
2023/07/29 02:50:52;;;;;;;6.83;6.13;;;17.70;99.90;;;;;;4982800;28;20873;-70
2023/07/29 02:53:19;;;;;;;6.77;6.23;;;17.70;99.90;;;;;;4979211;28;20233;-69
2023/07/29 02:55:46;;;;;;;6.60;6.03;;;17.70;99.90;;;;;;4993273;28;20208;-69
2023/07/29 02:58:13;;;;;;;6.83;6.23;;;17.70;99.90;;;;;;4977410;28;21573;-69
2023/07/29 03:00:41;;;;;;;6.43;5.83;;;17.70;99.90;;;;;;4997388;28;20197;-69
2023/07/29 03:03:08;;;;;;;7.30;6.60;;;17.70;99.90;;;;;;4977983;28;20735;-69
2023/07/29 03:05:38;;;;;;;6.50;6.00;;;17.70;99.90;;;;;;4987251;28;20192;-69
2023/07/29 03:08:05;;;;;;;7.13;6.50;;;17.70;99.90;;;;;;4964214;28;20205;-69
2023/07/29 03:10:32;;;;;;;8.27;7.47;;;17.80;99.90;;;;;;4988450;28;20796;-69
2023/07/29 03:12:58;;;;;;;8.37;7.60;;;17.80;99.90;;;;;;4985387;28;20624;-69
2023/07/29 03:15:25;;;;;;;7.33;6.63;;;17.90;99.90;;;;;;4972113;28;20189;-69
2023/07/29 03:17:52;;;;;;;8.53;7.00;;;17.80;99.90;;;;;;4995083;28;20687;-70
2023/07/29 03:20:20;;;;;;;7.87;7.03;;;17.80;99.90;;;;;;4983740;28;20941;-69
2023/07/29 03:22:48;;;;;;;8.13;7.47;;;17.90;99.90;;;;;;4973238;28;20209;-69
2023/07/29 03:25:15;;;;;;;8.50;7.70;;;17.90;99.90;;;;;;4981323;28;20220;-69
2023/07/29 03:27:42;;;;;;;9.30;8.50;;;17.90;99.90;;;;;;4997196;28;20185;-69
2023/07/29 03:30:10;;;;;;;9.30;8.40;;;17.90;99.90;;;;;;4986168;28;20291;-69
2023/07/29 03:32:38;;;;;;;9.10;8.30;;;17.90;99.90;;;;;;4996891;28;20275;-69
2023/07/29 03:35:06;;;;;;;8.23;7.53;;;18.00;99.90;;;;;;4983400;28;20724;-70
2023/07/29 03:37:33;;;;;;;8.80;8.07;;;18.00;99.90;;;;;;5004258;28;20203;-69
2023/07/29 03:40:01;;;;;;;8.87;8.07;;;18.00;99.90;;;;;;4960340;28;20267;-70
2023/07/29 03:42:28;;;;;;;8.67;7.90;;;18.00;99.90;;;;;;4992262;28;20190;-69
2023/07/29 03:44:55;;;;;;;11.33;9.37;;;17.90;99.90;;;;;;4985706;28;20729;-70
2023/07/29 03:47:21;;;;;;;9.40;8.60;;;18.00;99.90;;;;;;4973294;28;20796;-69
2023/07/29 03:49:49;;;;;;;9.87;8.87;;;18.00;99.90;;;;;;4995156;28;20204;-69
2023/07/29 03:52:19;;;;;;;9.77;8.87;;;18.00;99.90;;;;;;4979785;28;20229;-69
2023/07/29 03:54:46;;;;;;;10.10;9.10;;;18.00;99.90;;;;;;4980733;28;20216;-69
2023/07/29 03:57:19;;;;;;;10.00;9.10;;;18.00;99.90;;;;;;4980746;28;20209;-69
2023/07/29 03:59:46;;;;;;;10.60;9.63;;;18.00;99.90;;;;;;4992571;28;20217;-69
2023/07/29 04:02:13;;;;;;;11.00;10.00;;;18.00;99.90;;;;;;4969793;28;20204;-70
2023/07/29 04:04:41;;;;;;;11.97;10.87;;;18.00;99.90;;;;;;4971032;28;20301;-69
2023/07/29 04:07:08;;;;;;;13.23;10.93;;;18.10;99.90;;;;;;4992041;28;20216;-69
2023/07/29 04:09:35;;;;;;;11.50;10.07;;;18.10;99.90;;;;;;4973015;28;20331;-69
2023/07/29 04:12:04;;;;;;;11.37;10.37;;;18.10;99.90;;;;;;4990194;28;20573;-69
2023/07/29 04:14:36;;;;;;;12.23;10.93;;;18.10;99.90;;;;;;4990868;28;20967;-69
2023/07/29 04:17:03;;;;;;;12.03;10.83;;;18.10;99.90;;;;;;4993248;28;20189;-69
2023/07/29 04:19:30;;;;;;;11.90;10.80;;;18.10;99.90;;;;;;4980408;28;20692;-70
2023/07/29 04:21:58;;;;;;;12.83;11.20;;;18.10;99.90;;;;;;4992229;28;20197;-69
2023/07/29 04:24:25;;;;;;;10.53;9.50;;;18.20;99.90;;;;;;4975923;28;20228;-70
2023/07/29 04:26:52;;;;;;;11.83;10.73;;;18.20;99.90;;;;;;4993720;28;20212;-69
2023/07/29 04:29:19;;;;;;;12.03;10.77;;;18.20;99.90;;;;;;4979699;28;20219;-69
2023/07/29 04:31:47;;;;;;;14.37;11.80;;;18.30;99.90;;;;;;4978617;28;23643;-68
2023/07/29 04:34:15;;;;;;;13.83;12.00;;;18.30;99.90;;;;;;5004823;28;20595;-68
2023/07/29 04:36:42;;;;;;;14.70;13.27;;;18.30;99.90;;;;;;4986120;28;20205;-68
2023/07/29 04:39:09;;;;;;;15.73;14.20;;;18.30;99.90;;;;;;4981191;28;20209;-70
2023/07/29 04:41:36;;;;;;;14.93;13.33;;;18.40;99.90;;;;;;4979573;28;20209;-68
2023/07/29 04:44:03;;;;;;;18.17;13.93;;;18.40;99.90;;;;;;4979429;28;20268;-68
2023/07/29 04:46:30;;;;;;;18.20;14.27;;;18.40;99.90;;;;;;4995498;28;20209;-69
2023/07/29 04:48:58;;;;;;;16.57;14.67;;;18.40;99.90;;;;;;4967982;28;20213;-68
2023/07/29 04:51:25;;;;;;;19.40;15.87;;;18.40;99.90;;;;;;4978249;28;20185;-69
2023/07/29 04:53:52;;;;;;;18.77;15.93;;;18.30;99.90;;;;;;5000201;28;20221;-68
2023/07/29 04:56:19;;;;;;;19.60;15.77;;;18.40;99.90;;;;;;4971914;28;20212;-68
2023/07/29 04:58:46;;;;;;;19.47;17.30;;;18.40;99.90;;;;;;4987685;28;20205;-68
2023/07/29 05:01:13;;;;;;;20.17;17.10;;;18.40;99.90;;;;;;4981539;28;20195;-68
2023/07/29 05:03:40;;;;;;;20.17;16.77;;;18.40;99.90;;;;;;4972526;28;20740;-69
2023/07/29 05:06:09;;;;;;;20.63;17.50;;;18.40;99.90;;;;;;4989913;28;20212;-69
2023/07/29 05:08:36;;;;;;;21.73;18.10;;;18.40;99.90;;;;;;5002273;28;20192;-68
2023/07/29 05:11:02;;;;;;;23.47;16.97;;;18.40;99.90;;;;;;4976168;28;20193;-69
2023/07/29 05:13:29;;;;;;;22.20;17.87;;;18.50;99.90;;;;;;5005502;28;20307;-68
2023/07/29 05:15:57;;;;;;;21.30;16.93;;;18.50;99.90;;;;;;4965764;28;20212;-69
2023/07/29 05:18:24;;;;;;;23.77;17.40;;;18.50;99.90;;;;;;4982799;28;20204;-69
2023/07/29 05:20:51;;;;;;;22.23;17.40;;;18.50;99.90;;;;;;4988398;28;20223;-69
2023/07/29 05:23:19;;;;;;;25.30;17.77;;;18.50;99.90;;;;;;4995456;28;20299;-68
2023/07/29 05:25:46;;;;;;;25.53;17.97;;;18.60;99.90;;;;;;4986646;28;20284;-68
2023/07/29 05:28:12;;;;;;;22.23;18.33;;;18.60;99.90;;;;;;4973871;28;20200;-69
2023/07/29 05:30:40;;;;;;;24.87;18.07;;;18.60;99.90;;;;;;4991628;28;20288;-69
2023/07/29 05:33:08;;;;;;;24.53;18.10;;;18.60;99.90;;;;;;4972094;28;20228;-69
2023/07/29 05:35:35;;;;;;;23.57;18.40;;;18.60;99.90;;;;;;4993632;28;20209;-69
2023/07/29 05:38:03;;;;;;;21.43;16.73;;;18.70;99.90;;;;;;4994402;28;20208;-69
2023/07/29 05:40:31;;;;;;;21.77;17.70;;;18.70;99.90;;;;;;4975289;28;20212;-69
2023/07/29 05:42:58;;;;;;;21.20;16.50;;;18.70;99.90;;;;;;4978213;28;20300;-69
2023/07/29 05:45:25;;;;;;;22.13;17.03;;;18.70;99.90;;;;;;4979335;28;21191;-69
2023/07/29 05:47:53;;;;;;;26.17;17.03;;;18.70;99.90;;;;;;4977258;28;20573;-69
2023/07/29 05:50:20;;;;;;;18.90;16.87;;;18.80;99.90;;;;;;4971569;28;20962;-69
2023/07/29 05:52:48;;;;;;;21.53;17.33;;;18.80;99.90;;;;;;4976668;28;20252;-69
2023/07/29 05:55:14;;;;;;;21.73;17.53;;;18.90;99.90;;;;;;4996003;28;20224;-69
2023/07/29 05:57:43;;;;;;;19.10;16.20;;;18.90;99.90;;;;;;4963287;28;20220;-69
2023/07/29 06:00:11;;;;;;;19.90;16.37;;;19.00;99.90;;;;;;4975108;28;20200;-69
2023/07/29 06:02:40;;;;;;;20.17;16.70;;;19.00;99.90;;;;;;4990141;28;20731;-69
2023/07/29 06:05:08;;;;;;;20.57;16.70;;;19.10;99.90;;;;;;4990956;28;20355;-69
2023/07/29 06:07:35;;;;;;;20.53;16.57;;;19.10;99.90;;;;;;4999165;28;20204;-69
2023/07/29 06:10:02;;;;;;;19.90;15.93;;;19.10;99.90;;;;;;4985566;28;20731;-69
2023/07/29 06:12:29;;;;;;;19.00;16.50;;;19.10;99.90;;;;;;4967937;28;21640;-69
2023/07/29 06:14:59;;;;;;;20.30;15.93;;;19.10;99.90;;;;;;4991105;28;20240;-70
2023/07/29 06:17:26;;;;;;;20.90;16.77;;;19.10;99.90;;;;;;4983994;28;20209;-69
2023/07/29 06:19:53;;;;;;;22.70;16.47;;;19.10;99.90;;;;;;4996569;28;20558;-69
2023/07/29 06:22:20;;;;;;;20.43;16.90;;;19.20;99.90;;;;;;4993801;28;20373;-70
2023/07/29 06:24:47;;;;;;;20.13;16.90;;;19.20;99.90;;;;;;4975929;28;20228;-69
2023/07/29 06:27:13;;;;;;;19.13;16.80;;;19.30;99.90;;;;;;4957440;28;20220;-70
2023/07/29 06:29:40;;;;;;;19.42;16.90;;;19.40;99.90;;;;;;4995853;28;20197;-69
2023/07/29 06:32:09;;;;;;;21.47;17.37;;;19.40;99.90;;;;;;4993394;28;20235;-70
2023/07/29 06:34:36;;;;;;;18.93;16.67;;;19.40;99.90;;;;;;4995175;28;20229;-69
2023/07/29 06:37:02;;;;;;;18.23;15.83;;;19.40;99.90;;;;;;4987245;28;20197;-70
2023/07/29 06:39:29;;;;;;;20.10;15.88;;;19.40;99.90;;;;;;4991351;28;20189;-70
2023/07/29 06:41:56;;;;;;;17.73;15.70;;;19.50;99.90;;;;;;4988162;28;20216;-70
2023/07/29 06:44:23;;;;;;;21.10;15.97;;;19.50;99.90;;;;;;4981967;28;20223;-69
2023/07/29 06:46:50;;;;;;;18.30;16.25;;;19.50;99.90;;;;;;4998676;28;20221;-69
2023/07/29 06:49:18;;;;;;;22.03;15.57;;;19.50;99.90;;;;;;4977694;28;20204;-70
2023/07/29 06:51:45;;;;;;;17.15;15.35;;;19.40;99.90;;;;;;4995098;28;20189;-69
2023/07/29 06:54:11;;;;;;;16.98;14.98;;;19.30;99.90;;;;;;4975617;28;20229;-70
2023/07/29 06:56:38;;;;;;;18.97;15.17;;;19.50;99.90;;;;;;4992588;28;20238;-69
2023/07/29 06:59:06;;;;;;;18.73;14.63;;;19.60;99.90;;;;;;4976310;28;20212;-69
2023/07/29 07:01:32;;;;;;;18.15;15.15;;;19.50;99.90;;;;;;4992028;28;20668;-69
2023/07/29 07:03:59;;;;;;;18.08;16.00;;;19.50;99.90;;;;;;4997859;28;20223;-69
2023/07/29 07:06:27;;;;;;;18.63;15.43;;;19.50;99.90;;;;;;4994229;28;20188;-69
2023/07/29 07:08:54;;;;;;;17.17;15.43;;;19.60;99.90;;;;;;4988712;28;20696;-69
2023/07/29 07:11:21;;;;;;;17.87;15.27;;;19.80;99.90;;;;;;4989658;28;20293;-69
2023/07/29 07:13:48;;;;;;;19.03;15.60;;;19.70;99.90;;;;;;4997801;28;20224;-69
2023/07/29 07:16:15;;;;;;;16.92;15.07;;;19.60;99.90;;;;;;4979670;28;20976;-69
2023/07/29 07:18:42;;;;;;;16.20;14.43;;;19.70;99.90;;;;;;5002526;28;20657;-68
2023/07/29 07:21:09;;;;;;;16.25;14.52;;;19.60;99.90;;;;;;4992236;28;20574;-69
2023/07/29 07:23:37;;;;;;;17.55;14.88;;;19.60;99.90;;;;;;4992613;28;20240;-69
2023/07/29 07:26:03;;;;;;;16.27;14.52;;;19.50;99.90;;;;;;4986635;28;20197;-69
2023/07/29 07:28:30;;;;;;;19.52;15.88;;;19.70;99.90;;;;;;4991778;28;20208;-68
2023/07/29 07:30:57;;;;;;;17.67;15.85;;;19.70;99.90;;;;;;4979563;28;20574;-69
2023/07/29 07:33:24;;;;;;;18.35;14.90;;;19.70;99.90;;;;;;4999098;28;20216;-69
2023/07/29 07:35:51;;;;;;;16.00;14.30;;;19.80;99.90;;;;;;4998277;28;20192;-68
2023/07/29 07:38:18;;;;;;;18.92;14.88;;;19.90;99.90;;;;;;4995262;28;20192;-69
2023/07/29 07:40:54;;;;;;;17.55;15.50;;;19.80;99.90;;;;;;4994784;28;20208;-69
2023/07/29 07:43:21;;;;;;;18.17;15.00;;;19.70;99.90;;;;;;4989877;28;20216;-67
2023/07/29 07:45:48;;;;;;;15.80;14.15;;;19.60;99.90;;;;;;4983036;28;20201;-67
2023/07/29 07:48:16;;;;;;;17.60;15.75;;;19.80;99.90;;;;;;5004428;28;20735;-67
2023/07/29 07:50:43;;;;;;;18.40;16.57;;;19.80;99.90;;;;;;4973474;28;20201;-68
2023/07/29 07:53:10;;;;;;;18.93;16.43;;;19.80;99.90;;;;;;5001541;28;20582;-68
2023/07/29 07:55:38;;;;;;;19.60;16.40;;;19.80;99.90;;;;;;5005188;28;20229;-68
2023/07/29 07:58:06;;;;;;;18.40;15.68;;;19.70;99.90;;;;;;4998592;28;20196;-69
2023/07/29 08:00:33;;;;;;;19.73;16.48;;;19.70;99.90;;;;;;4989104;28;20205;-68
2023/07/29 08:03:00;;;;;;;20.42;15.82;;;19.70;99.90;;;;;;4986906;28;20823;-69
2023/07/29 08:05:26;;;;;;;17.83;16.02;;;19.90;99.90;;;;;;5004402;28;20192;-67
2023/07/29 08:07:53;;;;;;;19.40;16.85;;;19.70;99.90;;;;;;4995106;28;20252;-67
2023/07/29 08:10:20;;;;;;;19.07;16.60;;;19.70;99.90;;;;;;4994815;28;20197;-67
2023/07/29 08:12:47;;;;;;;17.52;14.90;;;19.80;99.90;;;;;;5000017;28;20209;-67
2023/07/29 08:15:15;;;;;;;18.23;15.57;;;19.90;99.90;;;;;;4997583;28;20224;-67
2023/07/29 08:17:42;;;;;;;16.40;14.57;;;19.70;99.90;;;;;;4982959;28;20613;-67
2023/07/29 08:20:10;;;;;;;16.85;15.10;;;19.70;99.90;;;;;;4998641;28;20726;-67
2023/07/29 08:22:37;;;;;;;16.52;14.25;;;19.80;99.90;;;;;;4997558;28;20218;-67
2023/07/29 08:25:04;;;;;;;17.58;13.80;;;19.70;99.90;;;;;;4998811;28;20216;-68
2023/07/29 08:27:31;;;;;;;15.48;13.68;;;19.80;99.90;;;;;;4991952;28;20566;-67
2023/07/29 08:29:58;;;;;;;16.33;14.30;;;19.60;99.90;;;;;;4997667;28;20573;-68
2023/07/29 08:32:26;;;;;;;15.15;13.65;;;19.60;99.90;;;;;;4988051;28;20239;-68
2023/07/29 08:34:53;;;;;;;17.73;14.73;;;19.70;99.90;;;;;;4999795;28;20216;-68
2023/07/29 08:37:20;;;;;;;17.35;14.45;;;19.60;99.90;;;;;;4993240;28;20647;-67
2023/07/29 08:39:46;;;;;;;19.98;15.32;;;19.60;99.90;;;;;;4994606;28;20259;-67
2023/07/29 08:42:15;;;;;;;17.95;15.27;;;19.60;99.90;;;;;;4992339;28;20208;-67
2023/07/29 08:44:44;;;;;;;17.48;15.32;;;19.50;99.90;;;;;;5002986;28;20208;-67
2023/07/29 08:47:13;;;;;;;19.83;16.05;;;19.50;99.90;;;;;;4979949;28;20208;-68
2023/07/29 08:49:42;;;;;;;19.13;15.95;;;19.70;99.90;;;;;;4989072;28;20276;-68
2023/07/29 08:52:10;;;;;;;19.20;17.15;;;19.60;99.90;;;;;;4999644;28;20247;-68
2023/07/29 08:54:37;;;;;;;18.92;16.23;;;19.70;99.90;;;;;;4997111;28;20279;-67
2023/07/29 08:57:05;;;;;;;17.88;15.77;;;19.70;99.90;;;;;;4987948;28;20209;-68
2023/07/29 08:59:33;;;;;;;22.90;17.40;;;20.00;99.90;;;;;;5003921;28;20204;-67
2023/07/29 09:02:00;;;;;;;21.27;16.77;;;19.90;99.90;;;;;;4977921;28;21610;-67
2023/07/29 09:04:28;;;;;;;19.13;16.38;;;20.00;99.90;;;;;;5001084;28;20217;-67
2023/07/29 09:06:57;;;;;;;23.27;17.73;;;20.00;99.90;;;;;;4993537;28;20192;-67
2023/07/29 09:09:26;;;;;;;17.70;15.20;;;;;;;;;;4998057;28;20208;-67
2023/07/29 09:11:54;;;;;;;20.13;16.40;;;20.10;99.90;;;;;;4998915;28;20864;-67
2023/07/29 09:14:21;;;;;;;19.00;16.75;;;20.20;99.90;;;;;;4984046;28;20224;-67
2023/07/29 09:16:48;;;;;;;21.25;16.88;;;20.60;99.90;;;;;;4997190;28;20280;-67
2023/07/29 09:19:15;;;;;;;18.15;15.73;;;19.90;99.90;;;;;;4987144;28;20213;-67
2023/07/29 09:21:42;;;;;;;18.10;15.25;;;20.40;99.90;;;;;;4996501;28;20200;-67
2023/07/29 09:24:10;;;;;;;17.90;15.95;;;20.60;99.90;;;;;;4995140;28;20909;-67
2023/07/29 09:26:37;;;;;;;17.20;14.38;;;20.40;99.90;;;;;;4997476;28;20546;-67
2023/07/29 09:29:04;;;;;;;16.90;15.18;;;20.50;99.90;;;;;;4992520;28;20204;-67
2023/07/29 09:31:31;;;;;;;16.58;14.45;;;20.70;99.90;;;;;;4994608;28;20705;-67
2023/07/29 09:33:59;;;;;;;16.48;14.05;;;20.70;99.90;;;;;;4984399;28;20224;-66
2023/07/29 09:36:27;;;;;;;14.77;13.23;;;20.60;99.90;;;;;;5000020;28;21014;-66
2023/07/29 09:38:55;;;;;;;15.13;12.75;;;20.70;99.90;;;;;;4992030;28;20203;-67
2023/07/29 09:41:25;;;;;;;15.73;13.82;;;20.90;99.90;;;;;;5000967;28;20199;-67
2023/07/29 09:43:57;;;;;;;15.93;12.52;;;21.10;99.90;;;;;;4992578;28;20270;-66
2023/07/29 09:46:25;;;;;;;14.77;12.10;;;20.90;99.90;;;;;;4991794;28;20208;-67
2023/07/29 09:48:54;;;;;;;15.40;12.20;;;21.20;99.90;;;;;;4978223;28;20200;-67
2023/07/29 09:51:21;;;;;;;13.30;11.90;;;21.20;99.90;;;;;;5000574;28;20197;-67
2023/07/29 09:53:50;;;;;;;14.00;12.13;;;21.40;99.90;;;;;;4995656;28;20220;-67
2023/07/29 09:56:17;;;;;;;11.50;10.30;;;21.50;99.90;;;;;;4997626;28;20197;-67
2023/07/29 09:58:46;;;;;;;12.65;10.25;;;21.50;99.90;;;;;;4999181;28;20691;-67
2023/07/29 10:01:13;;;;;;;10.20;9.25;;;21.70;99.90;;;;;;4984376;28;20288;-66
2023/07/29 10:03:41;;;;;;;10.57;9.50;;;21.80;99.90;;;;;;4989633;28;20270;-67
2023/07/29 10:06:08;;;;;;;8.98;8.18;;;21.80;99.90;;;;;;4994120;28;20258;-67
2023/07/29 10:08:38;;;;;;;9.15;8.25;;;22.00;99.90;;;;;;4996156;28;20636;-67
2023/07/29 10:11:06;;;;;;;8.38;7.60;;;22.10;99.90;;;;;;4992917;28;20197;-67
2023/07/29 10:13:33;;;;;;;7.75;7.05;;;22.20;99.90;;;;;;4995597;28;20278;-67
2023/07/29 10:16:03;;;;;;;6.65;6.07;;;22.30;99.90;;;;;;4990184;28;20258;-67
2023/07/29 10:18:31;;;;;;;7.32;6.18;;;22.40;99.90;;;;;;4999189;28;20280;-67
2023/07/29 10:21:00;;;;;;;7.57;6.60;;;22.40;99.90;;;;;;4984796;28;20921;-67
2023/07/29 10:23:28;;;;;;;5.10;4.70;;;22.30;99.90;;;;;;4994106;28;20217;-66
2023/07/29 10:26:02;;;;;;;5.40;4.90;;;22.40;99.90;;;;;;4988341;28;22877;-66
2023/07/29 10:28:31;;;;;;;3.95;3.75;;;22.50;99.90;;;;;;5004046;28;20202;-66
2023/07/29 10:30:58;;;;;;;4.45;4.05;;;22.60;99.90;;;;;;4994002;28;20437;-66
2023/07/29 10:33:27;;;;;;;4.18;3.78;;;22.70;99.90;;;;;;4992253;28;20224;-66
2023/07/29 10:35:54;;;;;;;4.88;4.38;;;22.80;99.90;;;;;;4980242;28;20200;-66
2023/07/29 10:38:23;;;;;;;4.60;4.20;;;22.70;99.90;;;;;;4996895;28;20204;-67
2023/07/29 10:40:55;;;;;;;4.63;4.20;;;22.60;99.90;;;;;;4996229;28;20201;-66
2023/07/29 10:43:26;;;;;;;4.63;4.30;;;22.70;99.90;;;;;;4994790;28;20220;-67
2023/07/29 10:45:53;;;;;;;4.20;3.80;;;22.80;99.90;;;;;;4999945;28;20185;-66
2023/07/29 10:48:43;;;;;;;4.72;4.43;;;22.90;99.90;;;;;;4988944;28;20239;-66
2023/07/29 10:51:25;;;;;;;3.72;3.45;;;23.00;99.90;;;;;;4997069;28;20201;-67
2023/07/29 10:53:53;;;;;;;4.20;3.90;;;23.00;99.90;;;;;;4993818;28;20215;-66
2023/07/29 10:56:27;;;;;;;4.00;3.70;;;22.70;99.90;;;;;;5003010;28;20254;-66
2023/07/29 10:58:57;;;;;;;3.83;3.50;;;22.60;99.90;;;;;;4993733;28;20231;-66
2023/07/29 11:01:32;;;;;;;3.58;3.05;;;22.50;99.90;;;;;;4997251;28;20199;-67
2023/07/29 11:04:24;;;;;;;3.45;3.25;;;22.50;99.90;;;;;;4980994;28;20295;-67
2023/07/29 11:07:26;;;;;;;2.95;2.70;;;22.50;99.90;;;;;;4978142;28;20303;-66
2023/07/29 11:09:58;;;;;;;2.70;2.50;;;22.40;99.90;;;;;;4994470;28;20930;-66
2023/07/29 11:12:51;;;;;;;2.67;2.58;;;22.40;99.90;;;;;;5002128;28;20207;-66
2023/07/29 11:15:26;;;;;;;2.55;2.35;;;22.40;99.90;;;;;;4984598;28;20224;-66
2023/07/29 11:17:54;;;;;;;2.85;2.55;;;22.40;99.90;;;;;;4993754;28;20442;-67
2023/07/29 11:20:26;;;;;;;2.70;2.50;;;22.40;99.90;;;;;;4985060;28;20251;-66
2023/07/29 11:22:53;;;;;;;2.40;2.30;;;22.50;99.90;;;;;;4998293;28;20847;-66
2023/07/29 11:25:22;;;;;;;4.30;2.40;;;22.60;99.90;;;;;;5000294;28;20279;-66
2023/07/29 11:27:49;;;;;;;2.67;2.50;;;22.60;99.90;;;;;;4992413;28;20753;-66
2023/07/29 11:30:17;;;;;;;2.15;1.90;;;22.70;99.90;;;;;;5001252;28;20745;-66
2023/07/29 11:32:45;;;;;;;2.45;2.25;;;22.90;99.90;;;;;;5003379;28;20595;-66
2023/07/29 11:35:14;;;;;;;2.47;2.38;;;23.00;99.90;;;;;;4997415;28;20220;-66
2023/07/29 11:37:45;;;;;;;3.33;3.03;;;23.00;99.90;;;;;;4980340;28;20215;-65
2023/07/29 11:40:15;;;;;;;3.97;3.67;;;23.00;99.90;;;;;;4995590;28;20204;-66
2023/07/29 11:42:42;;;;;;;3.92;3.63;;;22.90;99.90;;;;;;5000322;28;20201;-67
2023/07/29 11:45:10;;;;;;;3.00;2.78;;;23.00;99.90;;;;;;4999311;28;20212;-66
2023/07/29 11:47:37;;;;;;;3.08;2.88;;;23.10;99.90;;;;;;5001977;28;20388;-66
2023/07/29 11:50:05;;;;;;;2.72;2.35;;;23.20;99.90;;;;;;4997111;28;20897;-66
2023/07/29 11:52:33;;;;;;;3.05;2.85;;;23.40;99.90;;;;;;4986221;28;20212;-66
2023/07/29 11:55:01;;;;;;;3.20;3.00;;;23.30;99.90;;;;;;4998681;28;20941;-66
2023/07/29 11:57:28;;;;;;;3.28;2.97;;;23.10;99.90;;;;;;4999526;28;20196;-66
2023/07/29 11:59:55;;;;;;;3.33;3.10;;;23.00;99.90;;;;;;4992709;28;20219;-66
2023/07/29 12:02:24;;;;;;;3.75;2.50;;;23.00;99.90;;;;;;5004497;28;20192;-66
2023/07/29 12:04:51;;;;;;;3.10;2.90;;;23.00;99.90;;;;;;4999494;28;21090;-66
2023/07/29 12:07:19;;;;;;;3.28;3.03;;;23.00;99.90;;;;;;4984051;28;20208;-66
2023/07/29 12:09:47;;;;;;;2.67;2.47;;;23.00;99.90;;;;;;4985051;28;20292;-66
2023/07/29 12:12:16;;;;;;;2.97;2.25;;;23.00;99.90;;;;;;4999731;28;20201;-65
2023/07/29 12:14:46;;;;;;;2.97;2.72;;;23.10;99.90;;;;;;5002036;28;20232;-66
2023/07/29 12:17:13;;;;;;;3.10;2.90;;;23.10;99.90;;;;;;4998815;28;20207;-66
2023/07/29 12:19:41;;;;;;;2.78;2.58;;;23.30;99.90;;;;;;4993231;28;20945;-66
2023/07/29 12:22:09;;;;;;;2.30;2.20;;;23.50;99.90;;;;;;4996440;28;20208;-66
2023/07/29 12:24:38;;;;;;;2.60;2.13;;;23.60;99.90;;;;;;4973036;28;20230;-66
2023/07/29 12:27:06;;;;;;;2.40;2.20;;;23.70;99.90;;;;;;4999675;28;20251;-66
2023/07/29 12:29:41;;;;;;;2.78;2.20;;;23.70;99.90;;;;;;4994514;28;20288;-66
2023/07/29 12:32:08;;;;;;;2.15;1.95;;;23.70;99.90;;;;;;4997058;28;20210;-66
2023/07/29 12:34:37;;;;;;;1.80;1.70;;;23.70;99.90;;;;;;4997990;28;20322;-66
2023/07/29 12:37:05;;;;;;;3.10;1.95;;;23.70;99.90;;;;;;5003155;28;20352;-66
2023/07/29 12:39:34;;;;;;;1.63;1.50;;;23.80;99.90;;;;;;4962682;28;20189;-66
2023/07/29 12:42:03;;;;;;;1.70;1.60;;;23.90;99.90;;;;;;4994246;28;20262;-66
2023/07/29 12:44:32;;;;;;;1.65;1.55;;;24.20;99.90;;;;;;4999778;28;20255;-66